메인 페이지
METAR-TAF:

METAR-TAF

공항 :

음스와티 3세 국제공항

만지니, 스와질란드

위도: 26-21-24S, 경도: 031-43-01E, 고도: 324m

현재 날씨관측

예보는 10 시간 39분 전, 17:00시(UTC)에 발표되었습니다.
10kt
온도 21°C
습도 40%
기압 1018 hPa
시정 10km 이상
1500m 미만 상공 구름 및 적란운 없음

METAR: FDSK 241700Z 17010KT CAVOK 21/07 Q1018 NOSIG

시각: 05:39 (03:39 UTC)

예보

예보는 17 시간 39분 전, 10:00시(UTC)에 발표되었습니다.
예보 대상 시간: 24일 12시부터 24일 21시까지 (UTC)
북북서10kt
시정 10km 이상
1500m 미만 상공 구름 및 적란운 없음
전환 중
24일 19시부터 24일 21시까지 (UTC)
9kt
시정 10km 이상
고도 3000ft 상공 구름 보통

TAF: FDSK 241000Z 2412/2421 33310KT CAVOK BECMG 2419/2421 17009KT 9999 SCT030

4,000개 이상의 공항 관측 자료 및 예보 (METAR 및 TAF 보고).

지도상에서 검색 가능한 기상관측소가 노란 점과 빨간 점으로 표시되어 있습니다.

기상관측소 명을 보려면 표시 위로 마우스를 이동하세요.

날씨 관측과 예보를 보려면 클릭하세요.

지도 변경 : 확대하려면 엑스 표시가 있는 녹색 버튼, 축소하려면 빼기 표시가 있는 녹색 버튼, 다음 페이지의 지도를 보려면 녹색 화살표를 클릭하세요.


METAR-TAF: